createdAt,value
2019-03-11T00:00:58.606Z,2.90
2019-03-11T00:06:29.028Z,3.50
2019-03-11T00:08:58.162Z,3.70
2019-03-11T00:11:46.531Z,3.00
2019-03-11T00:14:34.611Z,3.57
2019-03-11T00:17:03.811Z,3.00
2019-03-11T00:22:40.392Z,3.27
2019-03-11T00:25:09.663Z,3.50
2019-03-11T00:27:38.882Z,1.93
2019-03-11T00:33:03.446Z,1.50
2019-03-11T00:35:32.647Z,1.43
2019-03-11T00:38:01.817Z,1.47
2019-03-11T00:41:12.716Z,1.10
2019-03-11T00:43:42.073Z,0.97
2019-03-11T00:46:11.616Z,1.47
2019-03-11T00:49:03.035Z,1.30
2019-03-11T00:51:32.389Z,1.27
2019-03-11T00:54:01.621Z,1.87
2019-03-11T00:56:31.177Z,1.20
2019-03-11T00:59:19.253Z,1.40
2019-03-11T01:01:48.580Z,1.70
2019-03-11T01:04:17.837Z,1.23
2019-03-11T01:06:47.249Z,1.97
2019-03-11T01:09:55.920Z,1.43
2019-03-11T01:12:25.427Z,1.47
2019-03-11T01:20:47.346Z,2.10
2019-03-11T01:23:16.834Z,1.87
2019-03-11T01:26:06.780Z,1.60
2019-03-11T01:31:44.973Z,1.50
2019-03-11T01:34:14.369Z,1.93
2019-03-11T01:36:43.696Z,1.83
2019-03-11T01:39:12.926Z,2.00
2019-03-11T01:41:44.087Z,1.83
2019-03-11T01:44:32.391Z,1.60
2019-03-11T01:47:01.643Z,1.47
2019-03-11T01:49:31.129Z,1.77
2019-03-11T01:52:02.063Z,1.83
2019-03-11T01:54:50.426Z,1.50
2019-03-11T01:57:20.029Z,1.50
2019-03-11T02:00:09.779Z,1.90
2019-03-11T02:02:50.904Z,1.80
2019-03-11T02:05:20.087Z,1.37
2019-03-11T02:08:09.782Z,1.33
2019-03-11T02:10:39.500Z,1.30
2019-03-11T02:13:08.684Z,1.50
2019-03-11T02:15:38.246Z,1.30
2019-03-11T02:18:27.892Z,1.50
2019-03-11T02:20:57.093Z,1.67
2019-03-11T02:23:28.866Z,1.60
2019-03-11T02:25:58.010Z,1.60
2019-03-11T02:28:27.494Z,1.90
2019-03-11T02:30:56.775Z,1.53
2019-03-11T02:33:27.786Z,1.90
2019-03-11T02:35:57.010Z,1.27
2019-03-11T02:38:26.252Z,1.70
2019-03-11T02:40:55.793Z,1.57
2019-03-11T02:43:25.031Z,2.70
2019-03-11T02:45:54.219Z,1.57
2019-03-11T02:49:02.918Z,1.43
2019-03-11T02:51:32.180Z,1.60
2019-03-11T02:54:01.490Z,2.07
2019-03-11T03:00:06.373Z,1.83
2019-03-11T03:02:54.508Z,1.43
2019-03-11T03:11:17.521Z,1.83
2019-03-11T03:13:46.767Z,2.00
2019-03-11T03:19:43.534Z,2.43
2019-03-11T03:22:12.677Z,2.10
2019-03-11T03:24:42.039Z,1.67
2019-03-11T03:27:12.154Z,1.70
2019-03-11T03:29:41.450Z,1.83
2019-03-11T03:32:10.655Z,1.80
2019-03-11T03:34:40.036Z,1.83
2019-03-11T03:37:11.262Z,1.80
2019-03-11T03:39:40.422Z,1.87
2019-03-11T03:42:12.974Z,2.03
2019-03-11T03:47:35.389Z,1.80
2019-03-11T03:52:59.370Z,2.07
2019-03-11T03:55:28.623Z,1.93
2019-03-11T03:57:57.926Z,4.00
2019-03-11T04:00:27.137Z,1.57
2019-03-11T04:02:56.382Z,2.50
2019-03-11T04:05:25.645Z,2.10
2019-03-11T04:07:54.891Z,1.33
2019-03-11T04:10:43.310Z,1.83
2019-03-11T04:16:28.869Z,1.37
2019-03-11T04:19:18.777Z,1.20
2019-03-11T04:21:48.173Z,1.47
2019-03-11T04:24:17.368Z,1.70
2019-03-11T04:27:07.123Z,1.63
2019-03-11T04:29:55.467Z,1.60
2019-03-11T04:32:24.704Z,1.80
2019-03-11T04:34:54.463Z,1.70
2019-03-11T04:37:23.644Z,2.00
2019-03-11T04:39:52.860Z,1.83
2019-03-11T04:42:23.287Z,2.00
2019-03-11T04:50:41.773Z,1.97
2019-03-11T04:53:50.375Z,1.90
2019-03-11T04:56:19.622Z,2.00
2019-03-11T04:58:48.839Z,1.30
2019-03-11T05:01:18.067Z,1.83
2019-03-11T05:03:47.406Z,2.73
2019-03-11T05:06:16.875Z,2.53
2019-03-11T05:11:41.108Z,2.13
2019-03-11T05:14:12.687Z,2.27
2019-03-11T05:16:41.837Z,2.03
2019-03-11T05:19:12.042Z,2.50
2019-03-11T05:22:01.826Z,1.73
2019-03-11T05:27:39.801Z,1.77
2019-03-11T05:30:30.900Z,1.73
2019-03-11T05:33:19.030Z,1.50
2019-03-11T05:35:48.253Z,1.90
2019-03-11T05:38:17.456Z,1.97
2019-03-11T05:43:37.166Z,1.97
2019-03-11T05:46:27.325Z,1.87
2019-03-11T05:48:56.729Z,2.27
2019-03-11T05:51:31.606Z,1.53
2019-03-11T05:59:46.314Z,1.10
2019-03-11T06:05:15.674Z,1.30
2019-03-11T06:07:44.880Z,1.20
2019-03-11T06:10:14.181Z,1.50
2019-03-11T06:12:45.533Z,1.30
2019-03-11T06:15:54.203Z,1.63
2019-03-11T06:18:44.611Z,1.60
2019-03-11T06:21:32.939Z,1.70
2019-03-11T06:24:21.169Z,2.00
2019-03-11T06:26:51.580Z,1.50
2019-03-11T06:29:30.060Z,1.53
2019-03-11T06:31:51.788Z,1.93
2019-03-11T06:34:21.386Z,2.00
2019-03-11T06:37:09.680Z,2.20
2019-03-11T06:39:39.915Z,2.33
2019-03-11T06:42:29.689Z,3.77
2019-03-11T06:44:59.243Z,2.23
2019-03-11T06:50:48.604Z,2.80
2019-03-11T06:53:36.959Z,2.97
2019-03-11T06:56:06.395Z,3.47
2019-03-11T06:58:56.192Z,3.23
2019-03-11T07:07:09.648Z,3.37
2019-03-11T07:09:38.955Z,4.13
2019-03-11T07:12:08.155Z,3.60
2019-03-11T07:14:56.427Z,4.03
2019-03-11T07:17:25.793Z,4.57
2019-03-11T07:25:46.467Z,3.80
2019-03-11T07:28:16.608Z,3.70
2019-03-11T07:31:23.888Z,4.50
2019-03-11T07:37:01.336Z,4.47
2019-03-11T07:45:21.950Z,3.90
2019-03-11T07:47:53.300Z,3.73
2019-03-11T07:50:24.415Z,3.40
2019-03-11T07:56:08.450Z,4.40
2019-03-11T07:58:39.764Z,3.90
2019-03-11T08:01:09.083Z,3.53
2019-03-11T08:03:38.396Z,3.80
2019-03-11T08:06:18.110Z,3.23
2019-03-11T08:08:39.438Z,3.10
2019-03-11T08:11:08.621Z,3.53
2019-03-11T08:13:38.074Z,3.90
2019-03-11T08:16:28.369Z,3.60
2019-03-11T08:18:57.577Z,3.33
2019-03-11T08:22:06.237Z,4.87
2019-03-11T08:24:54.339Z,4.60
2019-03-11T08:27:23.631Z,3.20
2019-03-11T08:29:52.864Z,3.93
2019-03-11T08:32:22.477Z,3.80
2019-03-11T08:38:05.084Z,4.60
2019-03-11T08:40:31.176Z,4.00
2019-03-11T08:43:00.386Z,4.77
2019-03-11T08:48:43.341Z,4.10
2019-03-11T08:51:52.085Z,4.07
2019-03-11T08:54:41.845Z,4.70
2019-03-11T08:57:11.111Z,3.87
2019-03-11T09:00:20.181Z,4.13
2019-03-11T09:02:49.422Z,3.63
2019-03-11T09:05:18.658Z,4.10
2019-03-11T09:07:48.010Z,3.63
2019-03-11T09:13:05.435Z,3.90
2019-03-11T09:15:34.674Z,4.27
2019-03-11T09:18:24.277Z,3.40
2019-03-11T09:20:54.039Z,3.77
2019-03-11T09:23:23.333Z,3.80
2019-03-11T09:26:11.634Z,5.80
2019-03-11T09:28:41.243Z,3.30
2019-03-11T09:31:10.438Z,3.77
2019-03-11T09:33:40.164Z,4.23
2019-03-11T09:39:18.211Z,3.30
2019-03-11T09:41:48.661Z,3.17
2019-03-11T09:44:17.931Z,3.33
2019-03-11T09:46:47.279Z,3.67
2019-03-11T09:49:16.461Z,3.50
2019-03-11T09:52:25.168Z,2.97
2019-03-11T09:57:36.107Z,3.50
2019-03-11T10:00:27.420Z,3.37
2019-03-11T10:02:56.735Z,3.20
2019-03-11T10:05:26.356Z,3.13
2019-03-11T10:07:55.658Z,2.77
2019-03-11T10:13:33.594Z,3.40
2019-03-11T10:16:21.857Z,3.17
2019-03-11T10:18:51.214Z,3.40
2019-03-11T10:21:39.451Z,3.33
2019-03-11T10:24:27.585Z,3.33
2019-03-11T10:26:58.754Z,3.27
2019-03-11T10:29:28.007Z,3.03
2019-03-11T10:31:57.559Z,3.53
2019-03-11T10:34:26.775Z,2.57
2019-03-11T10:39:50.712Z,2.60
2019-03-11T10:42:43.229Z,2.80
2019-03-11T10:47:54.732Z,2.17
2019-03-11T10:50:24.745Z,1.60
2019-03-11T10:52:53.941Z,2.00
2019-03-11T10:58:17.560Z,1.57
2019-03-11T11:01:28.547Z,2.20
2019-03-11T11:04:20.311Z,2.17
2019-03-11T11:07:08.423Z,2.20
2019-03-11T11:09:37.760Z,2.67
2019-03-11T11:12:07.016Z,2.40
2019-03-11T11:14:36.324Z,2.20
2019-03-11T11:17:45.070Z,2.40
2019-03-11T11:23:28.429Z,1.83
2019-03-11T11:25:58.110Z,1.77
2019-03-11T11:28:27.445Z,1.97
2019-03-11T11:30:57.042Z,2.30
2019-03-11T11:39:19.409Z,3.07
2019-03-11T11:41:48.643Z,1.60
2019-03-11T11:47:33.996Z,1.93
2019-03-11T11:50:03.375Z,2.20
2019-03-11T11:52:32.506Z,1.70
2019-03-11T11:55:01.802Z,1.43
2019-03-11T11:57:31.058Z,1.80
2019-03-11T12:00:00.290Z,1.50
2019-03-11T12:02:29.516Z,1.40
2019-03-11T12:04:59.323Z,1.63
2019-03-11T12:07:28.856Z,1.60
2019-03-11T12:10:11.310Z,1.90
2019-03-11T12:12:40.560Z,1.40
2019-03-11T12:15:30.399Z,1.60
2019-03-11T12:21:34.417Z,1.80
2019-03-11T12:24:03.727Z,1.87
2019-03-11T12:29:13.546Z,1.67
2019-03-11T12:31:42.793Z,1.43
2019-03-11T12:37:39.901Z,1.50
2019-03-11T12:40:30.054Z,1.77
2019-03-11T12:43:39.002Z,1.30
2019-03-11T12:46:08.432Z,1.77
2019-03-11T12:48:38.140Z,1.80
2019-03-11T12:51:07.362Z,2.23
2019-03-11T12:56:32.279Z,1.73
2019-03-11T12:59:01.581Z,1.53
2019-03-11T13:07:27.053Z,2.40
2019-03-11T13:09:56.314Z,2.50
2019-03-11T13:12:25.607Z,1.77
2019-03-11T13:14:54.897Z,2.00
2019-03-11T13:17:24.063Z,1.83
2019-03-11T13:20:14.620Z,1.60
2019-03-11T13:22:43.876Z,1.33
2019-03-11T13:25:13.112Z,1.70
2019-03-11T13:27:42.788Z,1.70
2019-03-11T13:30:33.093Z,1.40
2019-03-11T13:33:02.429Z,1.47
2019-03-11T13:35:31.661Z,1.60
2019-03-11T13:38:00.818Z,2.13
2019-03-11T13:40:30.010Z,1.53
2019-03-11T13:46:07.881Z,1.30
2019-03-11T13:48:37.064Z,1.50
2019-03-11T13:51:06.437Z,1.53
2019-03-11T13:53:35.883Z,1.80
2019-03-11T13:56:07.604Z,1.70
2019-03-11T14:02:11.537Z,1.53
2019-03-11T14:04:41.726Z,2.40
2019-03-11T14:07:11.594Z,1.60
2019-03-11T14:10:02.477Z,1.47
2019-03-11T14:12:31.736Z,1.67
2019-03-11T14:15:01.198Z,1.70
2019-03-11T14:17:30.376Z,1.43
2019-03-11T14:19:59.678Z,1.67
2019-03-11T14:22:48.951Z,1.80
2019-03-11T14:25:18.221Z,2.30
2019-03-11T14:27:47.930Z,1.93
2019-03-11T14:30:56.637Z,1.80
2019-03-11T14:33:26.388Z,1.70
2019-03-11T14:35:56.610Z,1.80
2019-03-11T14:38:25.810Z,1.60
2019-03-11T14:41:14.133Z,1.80
2019-03-11T14:43:43.357Z,1.87
2019-03-11T14:46:12.595Z,1.83
2019-03-11T14:48:41.747Z,1.83
2019-03-11T14:51:11.826Z,2.37
2019-03-11T14:53:41.156Z,2.07
2019-03-11T14:56:10.444Z,1.90
2019-03-11T14:58:39.699Z,2.30
2019-03-11T15:01:08.940Z,2.90
2019-03-11T15:03:58.781Z,1.83
2019-03-11T15:06:30.445Z,1.63
2019-03-11T15:11:55.625Z,1.70
2019-03-11T15:14:25.706Z,2.10
2019-03-11T15:16:55.002Z,2.10
2019-03-11T15:25:49.957Z,2.10
2019-03-11T15:28:19.384Z,1.57
2019-03-11T15:30:48.713Z,1.97
2019-03-11T15:33:18.458Z,2.07
2019-03-11T15:35:48.891Z,1.83
2019-03-11T15:38:40.886Z,1.80
2019-03-11T15:41:10.604Z,1.70
2019-03-11T15:43:39.832Z,1.50
2019-03-11T15:46:09.262Z,1.73
2019-03-11T15:48:38.552Z,2.20
2019-03-11T15:51:07.831Z,1.80
2019-03-11T15:53:37.035Z,1.87
2019-03-11T15:56:06.286Z,1.50
2019-03-11T15:58:35.440Z,1.93
2019-03-11T16:01:04.681Z,1.50
2019-03-11T16:03:36.462Z,2.10
2019-03-11T16:06:05.026Z,1.87
2019-03-11T16:08:34.851Z,1.23
2019-03-11T16:11:04.112Z,1.73
2019-03-11T16:13:33.347Z,1.70
2019-03-11T16:16:02.891Z,1.73
2019-03-11T16:18:32.112Z,1.77
2019-03-11T16:21:02.113Z,1.53
2019-03-11T16:23:31.290Z,1.53
2019-03-11T16:26:00.460Z,2.10
2019-03-11T16:28:29.642Z,2.00
2019-03-11T16:30:59.159Z,1.87
2019-03-11T16:33:28.376Z,1.80
2019-03-11T16:35:57.579Z,1.40
2019-03-11T16:38:26.800Z,2.07
2019-03-11T16:40:56.285Z,1.80
2019-03-11T16:43:25.454Z,1.73
2019-03-11T16:45:54.695Z,2.10
2019-03-11T16:48:23.903Z,1.63
2019-03-11T16:50:53.436Z,1.80
2019-03-11T16:53:22.677Z,1.93
2019-03-11T16:55:52.121Z,1.87
2019-03-11T16:58:21.321Z,1.53
2019-03-11T17:00:52.669Z,2.00
2019-03-11T17:03:21.951Z,1.60
2019-03-11T17:05:53.380Z,1.57
2019-03-11T17:08:22.664Z,2.13
2019-03-11T17:10:52.243Z,2.13
2019-03-11T17:13:21.587Z,1.60
2019-03-11T17:15:50.811Z,2.43
2019-03-11T17:18:23.110Z,2.00
2019-03-11T17:20:52.289Z,2.50
2019-03-11T17:23:21.569Z,1.70
2019-03-11T17:25:50.747Z,1.73
2019-03-11T17:28:19.997Z,1.67
2019-03-11T17:30:49.164Z,1.87
2019-03-11T17:33:18.363Z,2.27
2019-03-11T17:35:47.618Z,1.57
2019-03-11T17:38:45.574Z,3.70
2019-03-11T17:41:15.806Z,6.53
2019-03-11T17:43:46.497Z,1.70
2019-03-11T17:46:22.269Z,1.93
2019-03-11T17:48:56.338Z,2.43
2019-03-11T17:51:27.497Z,2.30
2019-03-11T17:54:01.506Z,2.00
2019-03-11T17:56:34.647Z,2.03
2019-03-11T17:59:07.036Z,1.80
2019-03-11T18:01:36.479Z,1.53
2019-03-11T18:04:08.495Z,1.80
2019-03-11T18:06:37.872Z,2.80
2019-03-11T18:09:07.810Z,2.07
2019-03-11T18:11:39.971Z,2.20
2019-03-11T18:14:09.523Z,2.20
2019-03-11T18:16:38.931Z,1.93
2019-03-11T18:19:08.282Z,2.03
2019-03-11T18:21:40.617Z,1.90
2019-03-11T18:24:10.192Z,2.37
2019-03-11T18:26:39.781Z,1.83
2019-03-11T18:29:09.159Z,2.10
2019-03-11T18:31:38.444Z,1.83
2019-03-11T18:34:07.894Z,2.17
2019-03-11T18:36:37.175Z,1.90
2019-03-11T18:39:09.149Z,2.30
2019-03-11T18:41:38.264Z,2.37
2019-03-11T18:44:07.675Z,1.70
2019-03-11T18:46:36.908Z,1.53
2019-03-11T18:49:06.270Z,1.93
2019-03-11T18:51:54.535Z,3.23
2019-03-11T18:54:23.950Z,1.90
2019-03-11T18:56:55.119Z,1.90
2019-03-11T18:59:24.384Z,2.40
2019-03-11T19:01:53.634Z,2.40
2019-03-11T19:04:22.847Z,1.73
2019-03-11T19:06:52.139Z,2.67
2019-03-11T19:09:21.324Z,4.63
2019-03-11T19:11:50.951Z,2.37
2019-03-11T19:14:20.231Z,2.47
2019-03-11T19:16:49.490Z,2.17
2019-03-11T19:19:18.813Z,2.47
2019-03-11T19:21:48.081Z,2.40
2019-03-11T19:24:17.326Z,2.50
2019-03-11T19:26:46.870Z,2.30
2019-03-11T19:29:16.265Z,2.40
2019-03-11T19:31:45.818Z,2.80
2019-03-11T19:34:15.053Z,2.07
2019-03-11T19:36:44.605Z,2.10
2019-03-11T19:39:17.879Z,2.13
2019-03-11T19:41:47.209Z,2.70
2019-03-11T19:44:16.358Z,4.40
2019-03-11T19:46:45.705Z,2.03
2019-03-11T19:49:15.062Z,2.00
2019-03-11T19:51:44.365Z,2.20
2019-03-11T19:54:13.667Z,1.70
2019-03-11T19:56:42.902Z,1.80
2019-03-11T19:59:12.382Z,1.93
2019-03-11T20:01:41.761Z,1.60
2019-03-11T20:04:11.209Z,1.93
2019-03-11T20:06:40.544Z,2.00
2019-03-11T20:09:13.098Z,2.57
2019-03-11T20:11:42.439Z,2.10
2019-03-11T20:14:14.676Z,2.57
2019-03-11T20:16:44.138Z,2.23
2019-03-11T20:19:13.457Z,2.20
2019-03-11T20:21:42.662Z,2.67
2019-03-11T20:24:17.768Z,3.37
2019-03-11T20:26:47.238Z,4.37
2019-03-11T20:29:16.560Z,2.50
2019-03-11T20:31:45.985Z,2.47
2019-03-11T20:34:15.360Z,2.20
2019-03-11T20:36:44.576Z,2.20
2019-03-11T20:39:13.947Z,2.40
2019-03-11T20:41:43.276Z,3.73
2019-03-11T20:44:13.063Z,2.30
2019-03-11T20:46:42.354Z,3.30
2019-03-11T20:49:14.711Z,2.83
2019-03-11T20:51:44.102Z,2.40
2019-03-11T20:54:13.471Z,2.33
2019-03-11T20:56:44.882Z,2.63
2019-03-11T20:59:14.678Z,2.33
2019-03-11T21:01:44.907Z,2.70
2019-03-11T21:04:14.377Z,3.17
2019-03-11T21:06:46.297Z,2.83
2019-03-11T21:09:17.030Z,5.03
2019-03-11T21:11:46.407Z,5.43
2019-03-11T21:14:15.724Z,2.60
2019-03-11T21:16:45.022Z,2.03
2019-03-11T21:19:17.376Z,2.40
2019-03-11T21:21:48.954Z,2.30
2019-03-11T21:24:21.312Z,3.90
2019-03-11T21:26:50.666Z,2.60
2019-03-11T21:29:20.043Z,2.40
2019-03-11T21:31:49.478Z,1.93
2019-03-11T21:34:19.420Z,2.07
2019-03-11T21:36:50.724Z,2.13
2019-03-11T21:39:27.120Z,2.83
2019-03-11T21:41:56.473Z,2.60
2019-03-11T21:44:25.755Z,2.27
2019-03-11T21:46:55.108Z,2.93
2019-03-11T21:49:24.311Z,3.70
2019-03-11T21:51:53.715Z,2.50
2019-03-11T21:54:24.059Z,2.13
2019-03-11T21:56:53.395Z,2.70
2019-03-11T21:59:22.973Z,2.70
2019-03-11T22:01:52.974Z,2.27
2019-03-11T22:04:22.257Z,3.27
2019-03-11T22:06:52.297Z,2.47
2019-03-11T22:09:21.566Z,2.50
2019-03-11T22:11:50.774Z,2.93
2019-03-11T22:14:25.336Z,2.27
2019-03-11T22:16:54.634Z,2.70
2019-03-11T22:19:42.919Z,2.60
2019-03-11T22:22:12.206Z,2.93
2019-03-11T22:24:41.403Z,2.67
2019-03-11T22:27:10.877Z,2.80
2019-03-11T22:29:40.124Z,3.07
2019-03-11T22:32:09.626Z,2.63
2019-03-11T22:34:39.201Z,2.60
2019-03-11T22:37:08.426Z,2.83
2019-03-11T22:39:37.644Z,2.40
2019-03-11T22:42:06.867Z,2.47
2019-03-11T22:44:55.385Z,2.67
2019-03-11T22:47:24.703Z,3.10
2019-03-11T22:49:53.981Z,2.90
2019-03-11T22:52:23.506Z,2.60
2019-03-11T22:54:52.778Z,2.70
2019-03-11T22:57:22.280Z,3.20
2019-03-11T22:59:51.664Z,3.03
2019-03-11T23:02:21.703Z,3.10
2019-03-11T23:04:50.883Z,3.03
2019-03-11T23:07:22.985Z,3.73
2019-03-11T23:09:52.209Z,3.33
2019-03-11T23:12:22.027Z,3.73
2019-03-11T23:14:51.303Z,4.50
2019-03-11T23:17:20.848Z,3.50
2019-03-11T23:19:53.272Z,3.80
2019-03-11T23:22:23.352Z,5.10
2019-03-11T23:24:52.577Z,6.00
2019-03-11T23:27:22.285Z,9.33
2019-03-11T23:29:51.748Z,8.80
2019-03-11T23:32:21.407Z,6.30
2019-03-11T23:34:50.674Z,8.90
2019-03-11T23:37:20.217Z,8.80
2019-03-11T23:39:49.530Z,9.57
2019-03-11T23:42:18.846Z,10.80
2019-03-11T23:44:48.915Z,9.67
2019-03-11T23:47:18.189Z,6.60
2019-03-11T23:49:47.539Z,4.70
2019-03-11T23:52:16.825Z,4.30
2019-03-11T23:54:46.371Z,3.73
2019-03-11T23:57:18.773Z,4.00
2019-03-11T23:59:48.902Z,4.57
